Galion, Ohio
Current Conditions -  °F | °C
As of 7:13 PM on Thursday 18 Dec 2014 (Local Time) from KMFD Reporting Station
Overcast Overcast  
Wind Chill: 27°   Ceiling: 900
Heat Index: 27°   Visibility: 7mi
Dew Point: 24°   Wind: 3mph
Humidity: 89%   Direction: 250°WSW
Pressure: 30.16"   Gusts: NA
Location:  40.73°N, 82.79°W
Report Text: KMFD 190013Z 25003KT 7SM OVC009 M03/M04 A3016 RMK AO2 T10281044
Loading
Personal Weather Stations






























Interactive Weather Map New forecast layout! Learn more

10-Day Weather Forecast

Advertisements
Track Severe Weather on mobile